createdAt,value
2022-11-29T00:03:26.731Z,780.00
2022-11-29T00:08:26.651Z,741.60
2022-11-29T00:13:26.632Z,741.60
2022-11-29T00:18:26.643Z,737.40
2022-11-29T00:23:26.650Z,737.40
2022-11-29T00:28:26.680Z,714.90
2022-11-29T00:33:26.663Z,714.90
2022-11-29T00:38:26.656Z,716.40
2022-11-29T00:43:26.680Z,716.40
2022-11-29T00:48:26.628Z,725.10
2022-11-29T00:53:26.677Z,725.10
2022-11-29T00:58:26.645Z,719.10
2022-11-29T01:03:26.661Z,719.10
2022-11-29T01:08:26.670Z,712.40
2022-11-29T01:13:26.689Z,712.40
2022-11-29T01:18:26.686Z,726.20
2022-11-29T01:23:26.692Z,726.20
2022-11-29T01:28:26.648Z,728.40
2022-11-29T01:33:26.684Z,728.40
2022-11-29T01:38:26.671Z,747.90
2022-11-29T01:43:26.699Z,747.90
2022-11-29T01:48:26.674Z,815.20
2022-11-29T01:53:26.707Z,815.20
2022-11-29T01:58:26.731Z,653.30
2022-11-29T02:03:27.009Z,653.30
2022-11-29T02:08:26.665Z,680.90
2022-11-29T02:13:26.977Z,680.90
2022-11-29T02:18:26.672Z,729.00
2022-11-29T02:23:26.707Z,729.00
2022-11-29T02:28:26.791Z,749.80
2022-11-29T02:33:26.715Z,749.80
2022-11-29T02:38:26.700Z,692.50
2022-11-29T02:43:26.700Z,692.50
2022-11-29T02:48:26.709Z,736.80
2022-11-29T02:53:26.712Z,736.80
2022-11-29T02:58:26.784Z,737.70
2022-11-29T03:08:26.718Z,734.70
2022-11-29T03:13:26.746Z,734.70
2022-11-29T03:18:26.690Z,694.80
2022-11-29T03:23:26.721Z,694.80
2022-11-29T03:28:26.728Z,705.90
2022-11-29T03:33:26.769Z,705.90
2022-11-29T03:38:26.724Z,714.70
2022-11-29T03:43:27.012Z,714.70
2022-11-29T03:48:26.704Z,739.30
2022-11-29T03:53:26.724Z,739.30
2022-11-29T03:58:26.766Z,727.00
2022-11-29T04:03:26.756Z,727.00
2022-11-29T04:08:26.737Z,701.30
2022-11-29T04:13:26.744Z,701.30
2022-11-29T04:18:26.762Z,659.30
2022-11-29T04:23:26.745Z,659.30
2022-11-29T04:28:26.730Z,673.90
2022-11-29T04:33:26.810Z,673.90
2022-11-29T04:38:26.769Z,691.80
2022-11-29T04:43:26.737Z,691.80
2022-11-29T04:48:26.776Z,723.00
2022-11-29T04:53:26.754Z,723.00
2022-11-29T04:58:26.720Z,731.80
2022-11-29T05:03:26.776Z,731.80
2022-11-29T05:08:26.760Z,683.20
2022-11-29T05:13:26.729Z,683.20
2022-11-29T05:18:26.758Z,719.80
2022-11-29T05:23:26.766Z,719.80
2022-11-29T05:28:26.765Z,690.90
2022-11-29T05:33:26.767Z,690.90
2022-11-29T05:38:26.796Z,696.60
2022-11-29T05:43:26.788Z,696.60
2022-11-29T05:48:26.762Z,718.90
2022-11-29T05:53:26.797Z,718.90
2022-11-29T05:58:30.326Z,725.20
2022-11-29T06:08:26.785Z,708.20
2022-11-29T06:13:26.927Z,708.20
2022-11-29T06:18:26.796Z,708.00
2022-11-29T06:23:26.804Z,708.00
2022-11-29T06:28:26.803Z,746.70
2022-11-29T06:33:26.771Z,746.70
2022-11-29T06:38:26.807Z,645.60
2022-11-29T06:43:26.771Z,645.60
2022-11-29T06:48:27.030Z,767.60
2022-11-29T06:53:26.807Z,767.60
2022-11-29T06:58:29.274Z,705.30
2022-11-29T07:03:26.796Z,705.30
2022-11-29T07:08:26.820Z,642.60
2022-11-29T07:13:26.810Z,642.60
2022-11-29T07:18:26.819Z,637.30
2022-11-29T07:23:26.833Z,637.30
2022-11-29T07:28:26.808Z,645.20
2022-11-29T07:33:26.797Z,645.20
2022-11-29T07:38:26.813Z,658.60
2022-11-29T07:43:26.817Z,658.60
2022-11-29T07:48:26.819Z,664.70
2022-11-29T07:53:26.835Z,664.70
2022-11-29T07:58:26.835Z,696.00
2022-11-29T08:03:26.827Z,696.00
2022-11-29T08:08:26.847Z,701.60
2022-11-29T08:13:26.834Z,701.60
2022-11-29T08:18:26.827Z,642.60
2022-11-29T08:23:26.860Z,642.60
2022-11-29T08:28:26.841Z,686.40
2022-11-29T08:33:26.842Z,686.40
2022-11-29T08:38:27.122Z,667.60
2022-11-29T08:43:26.845Z,667.60
2022-11-29T08:48:26.828Z,669.70
2022-11-29T08:53:26.824Z,669.70
2022-11-29T08:58:26.857Z,650.10
2022-11-29T09:03:26.848Z,650.10
2022-11-29T09:08:26.852Z,688.80
2022-11-29T09:13:26.860Z,688.80
2022-11-29T09:18:26.839Z,557.70
2022-11-29T09:23:26.851Z,557.70
2022-11-29T09:28:27.053Z,584.10
2022-11-29T09:33:26.857Z,584.10
2022-11-29T09:38:26.849Z,614.30
2022-11-29T09:43:26.916Z,614.30
2022-11-29T09:48:26.934Z,585.60
2022-11-29T09:53:26.885Z,585.60
2022-11-29T09:58:26.864Z,623.10
2022-11-29T10:03:26.868Z,623.10
2022-11-29T10:08:26.875Z,698.40
2022-11-29T10:13:26.878Z,698.40
2022-11-29T10:18:26.868Z,633.90
2022-11-29T10:23:26.932Z,633.90
2022-11-29T10:28:26.889Z,581.40
2022-11-29T10:33:26.895Z,581.40
2022-11-29T10:38:31.420Z,603.80
2022-11-29T10:43:26.882Z,603.80
2022-11-29T10:48:26.894Z,619.70
2022-11-29T10:53:26.900Z,619.70
2022-11-29T10:58:28.668Z,595.40
2022-11-29T11:03:26.891Z,595.40
2022-11-29T11:08:26.927Z,580.80
2022-11-29T11:13:26.891Z,580.80
2022-11-29T11:18:26.897Z,592.30
2022-11-29T11:23:26.881Z,592.30
2022-11-29T11:28:26.902Z,581.50
2022-11-29T11:33:26.909Z,581.50
2022-11-29T11:38:26.892Z,592.00
2022-11-29T11:43:26.889Z,592.00
2022-11-29T11:48:26.909Z,600.10
2022-11-29T11:53:26.923Z,600.10
2022-11-29T11:58:27.253Z,599.40
2022-11-29T12:08:27.517Z,609.40
2022-11-29T12:13:26.905Z,609.40
2022-11-29T12:18:26.904Z,605.70
2022-11-29T12:23:26.926Z,605.70
2022-11-29T12:28:26.931Z,612.10
2022-11-29T12:33:26.922Z,612.10
2022-11-29T12:38:26.919Z,609.20
2022-11-29T12:43:26.921Z,609.20
2022-11-29T12:48:26.942Z,621.90
2022-11-29T12:53:27.776Z,621.90
2022-11-29T12:58:26.911Z,620.20
2022-11-29T13:03:26.945Z,620.20
2022-11-29T13:08:26.914Z,630.60
2022-11-29T13:13:26.932Z,630.60
2022-11-29T13:23:45.595Z,631.40
2022-11-29T13:28:27.222Z,636.70
2022-11-29T13:33:26.946Z,636.70
2022-11-29T13:38:26.963Z,634.60
2022-11-29T13:43:30.319Z,634.60
2022-11-29T13:48:28.173Z,634.30
2022-11-29T13:53:26.935Z,634.30
2022-11-29T13:58:26.968Z,642.00
2022-11-29T14:03:26.930Z,642.00
2022-11-29T14:08:26.947Z,647.40
2022-11-29T14:13:26.941Z,647.40
2022-11-29T14:18:26.967Z,644.70
2022-11-29T14:23:26.933Z,644.70
2022-11-29T14:28:26.989Z,645.60
2022-11-29T14:33:26.938Z,645.60
2022-11-29T14:38:30.985Z,668.90
2022-11-29T14:43:26.980Z,668.90
2022-11-29T14:48:26.980Z,681.70
2022-11-29T14:53:26.983Z,681.70
2022-11-29T14:58:26.989Z,707.50
2022-11-29T15:03:27.051Z,707.50
2022-11-29T15:08:27.087Z,738.70
2022-11-29T15:13:26.957Z,738.70
2022-11-29T15:18:26.998Z,680.60
2022-11-29T15:23:26.970Z,680.60
2022-11-29T15:28:27.005Z,688.70
2022-11-29T15:33:26.991Z,688.70
2022-11-29T15:38:27.006Z,774.50
2022-11-29T15:43:26.967Z,774.50
2022-11-29T15:48:27.019Z,678.70
2022-11-29T15:53:27.004Z,678.70
2022-11-29T15:58:27.130Z,698.40
2022-11-29T16:03:27.184Z,698.40
2022-11-29T16:08:27.149Z,692.70
2022-11-29T16:13:27.048Z,692.70
2022-11-29T16:18:27.013Z,723.00
2022-11-29T16:23:27.016Z,723.00
2022-11-29T16:28:27.002Z,723.50
2022-11-29T16:33:27.023Z,723.50
2022-11-29T16:38:27.007Z,727.00
2022-11-29T16:43:27.000Z,727.00
2022-11-29T16:48:27.040Z,765.00
2022-11-29T16:53:27.071Z,765.00
2022-11-29T16:58:27.761Z,700.60
2022-11-29T17:03:27.155Z,700.60
2022-11-29T17:08:27.026Z,718.40
2022-11-29T17:13:27.517Z,718.40
2022-11-29T17:18:27.047Z,742.10
2022-11-29T17:23:26.989Z,742.10
2022-11-29T17:28:27.035Z,740.40
2022-11-29T17:38:27.099Z,743.20
2022-11-29T17:43:27.123Z,743.20
2022-11-29T17:48:32.103Z,749.10
2022-11-29T17:53:27.065Z,749.10
2022-11-29T17:58:27.041Z,768.40
2022-11-29T18:03:27.064Z,768.40
2022-11-29T18:08:27.214Z,748.50
2022-11-29T18:13:27.252Z,748.50
2022-11-29T18:18:27.274Z,679.30
2022-11-29T18:23:27.339Z,679.30
2022-11-29T18:28:27.299Z,691.30
2022-11-29T18:33:27.250Z,691.30
2022-11-29T18:38:27.310Z,648.10
2022-11-29T18:43:27.280Z,648.10
2022-11-29T18:48:27.050Z,646.20
2022-11-29T18:53:27.285Z,646.20
2022-11-29T18:58:28.134Z,681.30
2022-11-29T19:03:27.295Z,681.30
2022-11-29T19:08:27.348Z,714.10
2022-11-29T19:13:27.324Z,714.10
2022-11-29T19:18:27.403Z,704.60
2022-11-29T19:23:27.330Z,704.60
2022-11-29T19:28:27.096Z,669.60
2022-11-29T19:33:27.309Z,669.60
2022-11-29T19:38:27.375Z,682.70
2022-11-29T19:43:28.355Z,682.70
2022-11-29T19:48:27.359Z,742.70
2022-11-29T19:53:27.352Z,742.70
2022-11-29T19:58:28.545Z,746.40
2022-11-29T20:03:27.053Z,746.40
2022-11-29T20:08:28.679Z,724.10
2022-11-29T20:13:27.327Z,724.10
2022-11-29T20:18:27.335Z,803.60
2022-11-29T20:23:27.502Z,803.60
2022-11-29T20:33:27.660Z,801.50
2022-11-29T20:38:27.392Z,807.90
2022-11-29T20:43:27.842Z,807.90
2022-11-29T20:48:27.380Z,813.20
2022-11-29T20:53:27.382Z,813.20
2022-11-29T20:58:28.288Z,740.00
2022-11-29T21:03:27.379Z,740.00
2022-11-29T21:13:27.368Z,755.90
2022-11-29T21:18:27.332Z,765.60
2022-11-29T21:23:27.107Z,765.60
2022-11-29T21:28:27.121Z,732.50
2022-11-29T21:33:27.174Z,732.50
2022-11-29T21:38:27.128Z,740.40
2022-11-29T21:43:57.905Z,740.40
2022-11-29T21:48:27.122Z,747.40
2022-11-29T21:53:27.096Z,747.40
2022-11-29T21:58:27.133Z,750.10
2022-11-29T22:03:27.168Z,750.10
2022-11-29T22:08:27.153Z,765.60
2022-11-29T22:13:27.101Z,765.60
2022-11-29T22:18:27.155Z,779.10
2022-11-29T22:23:27.162Z,779.10
2022-11-29T22:28:27.121Z,799.30
2022-11-29T22:33:27.126Z,799.30
2022-11-29T22:38:27.165Z,836.00
2022-11-29T22:43:27.148Z,836.00
2022-11-29T22:48:27.239Z,783.80
2022-11-29T22:53:27.162Z,783.80
2022-11-29T22:58:27.152Z,779.00
2022-11-29T23:03:27.160Z,779.00
2022-11-29T23:18:27.353Z,754.20
2022-11-29T23:23:27.133Z,754.20
2022-11-29T23:28:27.256Z,773.60
2022-11-29T23:33:27.128Z,773.60
2022-11-29T23:38:27.188Z,781.90
2022-11-29T23:43:27.172Z,781.90
2022-11-29T23:48:27.159Z,820.50
2022-11-29T23:53:27.171Z,820.50
2022-11-29T23:58:27.158Z,790.40
